createdAt,value
2023-03-12T00:01:31.636Z,1.95
2023-03-12T00:04:04.056Z,1.98
2023-03-12T00:06:35.487Z,1.94
2023-03-12T00:09:07.444Z,1.98
2023-03-12T00:11:39.024Z,1.95
2023-03-12T00:14:10.604Z,1.90
2023-03-12T00:16:42.230Z,1.79
2023-03-12T00:19:14.392Z,1.82
2023-03-12T00:21:46.744Z,1.79
2023-03-12T00:24:18.656Z,1.76
2023-03-12T00:26:50.182Z,1.63
2023-03-12T00:29:22.209Z,1.52
2023-03-12T00:31:54.332Z,1.49
2023-03-12T00:34:25.851Z,1.46
2023-03-12T00:36:57.678Z,1.45
2023-03-12T00:39:29.174Z,1.46
2023-03-12T00:42:01.210Z,1.45
2023-03-12T00:44:32.793Z,1.41
2023-03-12T00:47:04.462Z,1.42
2023-03-12T00:49:36.249Z,1.45
2023-03-12T00:52:07.948Z,1.47
2023-03-12T00:54:39.470Z,1.54
2023-03-12T00:57:10.948Z,1.60
2023-03-12T00:59:42.953Z,1.57
2023-03-12T01:02:14.983Z,1.55
2023-03-12T01:04:46.712Z,1.60
2023-03-12T01:07:18.330Z,1.54
2023-03-12T01:09:49.846Z,1.54
2023-03-12T01:12:21.629Z,1.58
2023-03-12T01:14:53.615Z,1.57
2023-03-12T01:17:25.245Z,1.57
2023-03-12T01:19:56.839Z,1.43
2023-03-12T01:22:28.348Z,1.38
2023-03-12T01:24:59.934Z,1.41
2023-03-12T01:27:31.782Z,1.44
2023-03-12T01:30:06.472Z,1.54
2023-03-12T01:32:38.515Z,1.55
2023-03-12T01:35:10.303Z,1.54
2023-03-12T01:37:41.832Z,1.62
2023-03-12T01:40:21.938Z,1.71
2023-03-12T01:42:55.172Z,1.76
2023-03-12T01:46:05.123Z,1.89
2023-03-12T01:48:40.964Z,1.87
2023-03-12T01:51:15.148Z,1.90
2023-03-12T01:53:49.639Z,1.88
2023-03-12T01:56:22.231Z,1.90
2023-03-12T01:58:56.637Z,1.89
2023-03-12T02:01:31.641Z,1.89
2023-03-12T02:04:03.689Z,1.91
2023-03-12T02:06:46.652Z,1.87
2023-03-12T02:09:20.279Z,1.73
2023-03-12T02:11:51.875Z,1.62
2023-03-12T02:14:23.564Z,1.63
2023-03-12T02:16:55.962Z,1.62
2023-03-12T02:19:30.330Z,1.51
2023-03-12T02:22:03.265Z,1.54
2023-03-12T02:24:45.065Z,1.52
2023-03-12T02:27:18.679Z,1.58
2023-03-12T02:29:50.729Z,1.59
2023-03-12T02:32:26.836Z,1.54
2023-03-12T02:35:01.264Z,1.57
2023-03-12T02:37:33.191Z,1.59
2023-03-12T02:40:18.182Z,1.60
2023-03-12T02:42:49.886Z,1.62
2023-03-12T02:45:22.136Z,1.64
2023-03-12T02:47:53.710Z,1.66
2023-03-12T02:50:25.245Z,1.62
2023-03-12T02:52:56.759Z,1.61
2023-03-12T02:55:28.243Z,1.62
2023-03-12T02:57:59.739Z,1.65
2023-03-12T03:00:32.507Z,1.63
2023-03-12T03:03:04.227Z,1.66
2023-03-12T03:05:37.423Z,1.70
2023-03-12T03:08:09.343Z,1.67
2023-03-12T03:10:40.865Z,1.71
2023-03-12T03:13:12.392Z,1.75
2023-03-12T03:15:44.014Z,1.71
2023-03-12T03:18:15.888Z,1.73
2023-03-12T03:20:57.504Z,1.78
2023-03-12T03:23:30.070Z,1.76
2023-03-12T03:26:02.084Z,1.80
2023-03-12T03:28:33.811Z,1.78
2023-03-12T03:31:06.105Z,1.85
2023-03-12T03:33:39.957Z,1.85
2023-03-12T03:36:14.812Z,1.81
2023-03-12T03:38:49.360Z,1.75
2023-03-12T03:41:21.149Z,1.84
2023-03-12T03:43:58.689Z,1.87
2023-03-12T03:46:30.339Z,1.84
2023-03-12T03:49:02.318Z,1.92
2023-03-12T03:51:33.936Z,1.93
2023-03-12T03:54:05.492Z,1.97
2023-03-12T03:56:37.266Z,2.01
2023-03-12T03:59:08.915Z,2.03
2023-03-12T04:01:40.682Z,2.10
2023-03-12T04:04:12.264Z,2.10
2023-03-12T04:06:43.755Z,2.09
2023-03-12T04:09:15.248Z,2.12
2023-03-12T04:11:47.017Z,2.12
2023-03-12T04:14:18.578Z,2.12
2023-03-12T04:16:50.075Z,2.10
2023-03-12T04:19:21.610Z,2.10
2023-03-12T04:21:53.279Z,2.07
2023-03-12T04:24:24.840Z,2.13
2023-03-12T04:26:57.898Z,2.11
2023-03-12T04:29:29.464Z,2.10
2023-03-12T04:32:01.071Z,2.13
2023-03-12T04:34:32.842Z,2.16
2023-03-12T04:37:04.425Z,2.22
2023-03-12T04:39:35.995Z,2.24
2023-03-12T04:42:08.421Z,2.19
2023-03-12T04:44:40.989Z,2.24
2023-03-12T04:47:12.834Z,2.25
2023-03-12T04:49:44.429Z,2.30
2023-03-12T04:52:17.657Z,2.27
2023-03-12T04:54:49.226Z,2.26
2023-03-12T04:57:21.138Z,2.26
2023-03-12T04:59:52.790Z,2.23
2023-03-12T05:02:25.978Z,2.28
2023-03-12T05:04:58.494Z,2.26
2023-03-12T05:07:31.853Z,2.34
2023-03-12T05:10:04.346Z,2.30
2023-03-12T05:12:36.109Z,2.28
2023-03-12T05:15:08.287Z,2.28
2023-03-12T05:17:40.911Z,2.24
2023-03-12T05:20:13.044Z,2.28
2023-03-12T05:22:44.730Z,2.25
2023-03-12T05:25:16.660Z,2.28
2023-03-12T05:27:48.435Z,2.24
2023-03-12T05:30:20.801Z,2.30
2023-03-12T05:32:52.270Z,2.35
2023-03-12T05:35:24.145Z,2.36
2023-03-12T05:37:55.730Z,2.37
2023-03-12T05:40:27.564Z,2.44
2023-03-12T05:42:59.102Z,2.49
2023-03-12T05:45:33.090Z,2.48
2023-03-12T05:48:05.214Z,2.54
2023-03-12T05:50:37.086Z,2.60
2023-03-12T05:53:08.859Z,2.62
2023-03-12T05:55:40.947Z,2.65
2023-03-12T05:58:12.443Z,2.73
2023-03-12T06:00:44.445Z,2.77
2023-03-12T06:03:15.988Z,2.83
2023-03-12T06:05:48.228Z,2.84
2023-03-12T06:08:20.065Z,2.88
2023-03-12T06:10:55.119Z,2.93
2023-03-12T06:13:28.308Z,2.93
2023-03-12T06:16:05.495Z,2.99
2023-03-12T06:18:37.748Z,3.01
2023-03-12T06:21:16.073Z,3.00
2023-03-12T06:23:48.188Z,3.03
2023-03-12T06:26:21.443Z,3.11
2023-03-12T06:28:53.345Z,3.19
2023-03-12T06:31:25.410Z,3.24
2023-03-12T06:33:56.993Z,3.27
2023-03-12T06:36:28.596Z,3.36
2023-03-12T06:39:00.071Z,3.28
2023-03-12T06:41:34.234Z,3.25
2023-03-12T06:44:06.328Z,3.01
2023-03-12T06:46:38.232Z,3.13
2023-03-12T06:49:10.490Z,3.02
2023-03-12T06:51:42.067Z,3.17
2023-03-12T06:54:13.704Z,3.16
2023-03-12T06:56:45.988Z,3.26
2023-03-12T06:59:18.395Z,3.35
2023-03-12T07:01:49.981Z,3.48
2023-03-12T07:04:21.916Z,3.49
2023-03-12T07:06:53.499Z,3.45
2023-03-12T07:09:25.020Z,3.51
2023-03-12T07:11:56.620Z,3.51
2023-03-12T07:14:28.083Z,3.51
2023-03-12T07:17:02.046Z,3.51
2023-03-12T07:19:33.624Z,3.61
2023-03-12T07:22:05.989Z,3.75
2023-03-12T07:24:37.388Z,3.76
2023-03-12T07:27:08.938Z,3.92
2023-03-12T07:29:40.491Z,4.02
2023-03-12T07:32:12.585Z,4.12
2023-03-12T07:34:44.656Z,4.19
2023-03-12T07:37:16.232Z,4.24
2023-03-12T07:39:51.300Z,4.23
2023-03-12T07:42:23.309Z,4.35
2023-03-12T07:44:55.200Z,4.46
2023-03-12T07:47:26.825Z,4.53
2023-03-12T07:49:58.419Z,4.61
2023-03-12T07:52:30.177Z,4.69
2023-03-12T07:55:01.995Z,4.72
2023-03-12T07:57:34.094Z,4.75
2023-03-12T08:00:07.853Z,4.58
2023-03-12T08:02:39.789Z,4.62
2023-03-12T08:05:12.751Z,4.64
2023-03-12T08:07:45.299Z,4.52
2023-03-12T08:10:16.918Z,4.46
2023-03-12T08:12:49.183Z,4.44
2023-03-12T08:15:20.809Z,4.47
2023-03-12T08:17:52.564Z,4.53
2023-03-12T08:20:24.123Z,4.61
2023-03-12T08:22:55.676Z,4.43
2023-03-12T08:25:27.483Z,4.37
2023-03-12T08:27:59.065Z,4.58
2023-03-12T08:30:31.506Z,4.59
2023-03-12T08:33:03.168Z,4.72
2023-03-12T08:35:34.791Z,4.79
2023-03-12T08:38:06.547Z,4.90
2023-03-12T08:40:38.396Z,4.91
2023-03-12T08:43:11.005Z,4.67
2023-03-12T08:45:42.606Z,4.63
2023-03-12T08:48:14.975Z,4.74
2023-03-12T08:50:46.953Z,4.79
2023-03-12T08:53:18.821Z,4.79
2023-03-12T08:55:55.445Z,4.78
2023-03-12T08:58:28.360Z,4.84
2023-03-12T09:01:01.076Z,4.97
2023-03-12T09:03:32.733Z,5.05
2023-03-12T09:06:07.620Z,5.10
2023-03-12T09:08:40.367Z,5.14
2023-03-12T09:11:14.477Z,5.20
2023-03-12T09:16:38.458Z,5.15
2023-03-12T09:19:10.594Z,5.15
2023-03-12T09:21:42.196Z,5.13
2023-03-12T09:24:14.007Z,5.20
2023-03-12T09:26:45.509Z,5.28
2023-03-12T09:29:17.019Z,5.36
2023-03-12T09:31:48.507Z,5.45
2023-03-12T09:34:20.006Z,5.43
2023-03-12T09:36:52.140Z,5.43
2023-03-12T09:39:23.775Z,5.11
2023-03-12T09:41:55.445Z,5.13
2023-03-12T09:44:39.896Z,4.76
2023-03-12T09:47:28.209Z,4.90
2023-03-12T09:50:06.166Z,4.98
2023-03-12T09:53:05.950Z,4.99
2023-03-12T09:55:40.612Z,5.03
2023-03-12T09:58:32.165Z,5.10
2023-03-12T10:01:09.550Z,5.16
2023-03-12T10:03:46.605Z,5.16
2023-03-12T10:06:39.548Z,5.18
2023-03-12T10:09:37.687Z,5.19
2023-03-12T10:12:18.392Z,5.21
2023-03-12T10:15:22.409Z,5.18
2023-03-12T10:17:59.931Z,5.06
2023-03-12T10:21:02.213Z,4.94
2023-03-12T10:23:42.849Z,4.90
2023-03-12T10:26:19.759Z,4.90
2023-03-12T10:29:03.641Z,4.85
2023-03-12T10:31:43.442Z,4.91
2023-03-12T10:34:41.356Z,4.71
2023-03-12T10:37:22.910Z,4.76
2023-03-12T10:39:55.682Z,4.75
2023-03-12T10:42:29.112Z,4.72
2023-03-12T10:45:09.957Z,4.78
2023-03-12T10:47:43.535Z,4.82
2023-03-12T10:50:30.771Z,4.82
2023-03-12T10:53:21.193Z,4.88
2023-03-12T10:56:01.689Z,4.93
2023-03-12T10:58:37.719Z,5.02
2023-03-12T11:01:15.592Z,5.14
2023-03-12T11:03:47.483Z,5.21
2023-03-12T11:06:29.997Z,5.30
2023-03-12T11:09:17.465Z,5.46
2023-03-12T11:11:51.094Z,5.56
2023-03-12T11:14:25.665Z,5.66
2023-03-12T11:17:18.097Z,5.83
2023-03-12T11:19:49.844Z,6.00
2023-03-12T11:22:35.201Z,6.17
2023-03-12T11:25:08.579Z,6.22
2023-03-12T11:27:45.986Z,6.30
2023-03-12T11:30:44.976Z,6.31
2023-03-12T11:33:17.984Z,6.14
2023-03-12T11:36:06.117Z,6.11
2023-03-12T11:39:01.937Z,6.14
2023-03-12T11:41:54.846Z,6.17
2023-03-12T11:45:14.910Z,6.22
2023-03-12T11:47:57.579Z,6.26
2023-03-12T11:51:04.217Z,6.44
2023-03-12T11:53:57.011Z,6.64
2023-03-12T11:56:37.496Z,6.70
2023-03-12T11:59:28.112Z,6.81
2023-03-12T12:02:23.894Z,6.73
2023-03-12T12:05:30.938Z,6.86
2023-03-12T12:08:17.156Z,6.94
2023-03-12T12:11:00.725Z,6.93
2023-03-12T12:13:43.874Z,6.88
2023-03-12T12:16:30.773Z,6.60
2023-03-12T12:19:20.745Z,6.62
2023-03-12T12:22:03.430Z,6.61
2023-03-12T12:24:46.957Z,6.66
2023-03-12T12:27:26.136Z,6.72
2023-03-12T12:30:26.527Z,6.76
2023-03-12T12:33:03.910Z,6.77
2023-03-12T12:35:40.299Z,6.79
2023-03-12T12:38:20.312Z,6.76
2023-03-12T12:40:55.989Z,6.85
2023-03-12T12:43:35.382Z,6.82
2023-03-12T12:46:10.035Z,6.96
2023-03-12T12:48:50.628Z,7.01
2023-03-12T12:51:30.180Z,7.05
2023-03-12T12:54:04.820Z,6.98
2023-03-12T12:56:51.115Z,7.08
2023-03-12T12:59:54.282Z,7.18
2023-03-12T13:02:30.958Z,7.31
2023-03-12T13:05:02.703Z,7.37
2023-03-12T13:07:34.727Z,7.56
2023-03-12T13:10:07.670Z,7.71
2023-03-12T13:12:50.352Z,7.82
2023-03-12T13:15:30.671Z,7.97
2023-03-12T13:18:08.097Z,8.01
2023-03-12T13:21:34.970Z,7.97
2023-03-12T13:24:24.350Z,7.98
2023-03-12T13:27:20.314Z,8.02
2023-03-12T13:29:57.146Z,8.41
2023-03-12T13:32:34.620Z,9.01
2023-03-12T13:35:18.226Z,9.25
2023-03-12T13:37:52.749Z,9.16
2023-03-12T13:40:30.346Z,9.09
2023-03-12T13:43:14.891Z,9.16
2023-03-12T13:46:07.897Z,9.15
2023-03-12T13:48:45.460Z,9.04
2023-03-12T13:51:18.777Z,8.96
2023-03-12T13:54:00.472Z,8.80
2023-03-12T13:56:34.117Z,8.65
2023-03-12T13:59:17.792Z,8.63
2023-03-12T14:01:53.890Z,8.57
2023-03-12T14:04:33.251Z,8.65
2023-03-12T14:07:24.079Z,8.70
2023-03-12T14:10:30.671Z,8.95
2023-03-12T14:13:24.379Z,9.22
2023-03-12T14:16:08.226Z,9.63
2023-03-12T14:18:44.274Z,10.64
2023-03-12T14:21:17.523Z,12.78
2023-03-12T14:23:57.382Z,15.42
2023-03-12T14:26:33.239Z,16.44
2023-03-12T14:29:18.704Z,18.22
2023-03-12T14:31:52.386Z,17.36
2023-03-12T14:34:27.535Z,15.76
2023-03-12T14:37:11.320Z,14.17
2023-03-12T14:39:59.315Z,13.16
2023-03-12T14:42:36.369Z,12.04
2023-03-12T14:45:07.839Z,11.54
2023-03-12T14:47:59.617Z,10.88
2023-03-12T14:50:38.803Z,10.57
2023-03-12T14:53:24.479Z,10.34
2023-03-12T14:56:29.331Z,10.18
2023-03-12T14:59:20.494Z,10.15
2023-03-12T15:01:52.542Z,10.30
2023-03-12T15:04:24.907Z,10.26
2023-03-12T15:06:59.017Z,10.11
2023-03-12T15:09:34.172Z,10.11
2023-03-12T15:12:22.463Z,9.98
2023-03-12T15:15:00.419Z,9.90
2023-03-12T15:17:32.221Z,9.83
2023-03-12T15:20:09.247Z,9.69
2023-03-12T15:22:41.472Z,9.64
2023-03-12T15:25:25.873Z,9.55
2023-03-12T15:28:27.853Z,9.56
2023-03-12T15:31:15.045Z,9.63
2023-03-12T15:34:01.097Z,9.84
2023-03-12T15:36:35.123Z,9.92
2023-03-12T15:39:37.896Z,9.87
2023-03-12T15:42:10.930Z,9.77
2023-03-12T15:44:52.208Z,9.68
2023-03-12T15:47:26.846Z,9.61
2023-03-12T15:50:03.046Z,9.48
2023-03-12T15:52:36.010Z,9.42
2023-03-12T15:55:07.651Z,9.26
2023-03-12T15:57:45.986Z,9.29
2023-03-12T16:00:23.281Z,9.29
2023-03-12T16:03:00.221Z,9.30
2023-03-12T16:05:35.214Z,9.29
2023-03-12T16:08:15.820Z,9.24
2023-03-12T16:10:49.924Z,9.19
2023-03-12T16:13:28.511Z,9.13
2023-03-12T16:16:00.595Z,9.27
2023-03-12T16:18:32.135Z,9.39
2023-03-12T16:21:03.984Z,9.40
2023-03-12T16:23:35.518Z,9.43
2023-03-12T16:26:07.345Z,9.50
2023-03-12T16:28:39.078Z,9.43
2023-03-12T16:31:12.719Z,9.45
2023-03-12T16:33:44.854Z,9.35
2023-03-12T16:36:19.147Z,9.20
2023-03-12T16:38:50.645Z,9.16
2023-03-12T16:41:22.380Z,8.98
2023-03-12T16:43:54.799Z,8.96
2023-03-12T16:46:30.802Z,8.92
2023-03-12T16:49:04.155Z,8.86
2023-03-12T16:51:35.750Z,8.82
2023-03-12T16:54:11.640Z,8.83
2023-03-12T16:56:47.965Z,8.77
2023-03-12T16:59:28.031Z,8.71
2023-03-12T17:01:59.908Z,8.65
2023-03-12T17:04:31.524Z,8.59
2023-03-12T17:07:03.085Z,8.48
2023-03-12T17:09:34.825Z,8.45
2023-03-12T17:12:21.561Z,8.35
2023-03-12T17:14:53.052Z,8.18
2023-03-12T17:17:25.001Z,8.09
2023-03-12T17:19:56.949Z,8.04
2023-03-12T17:22:28.533Z,8.00
2023-03-12T17:25:00.028Z,7.93
2023-03-12T17:27:31.941Z,7.91
2023-03-12T17:30:03.647Z,7.85
2023-03-12T17:32:35.222Z,7.83
2023-03-12T17:35:07.304Z,7.82
2023-03-12T17:37:38.887Z,7.80
2023-03-12T17:40:11.334Z,7.84
2023-03-12T17:42:42.971Z,7.65
2023-03-12T17:45:14.599Z,7.72
2023-03-12T17:47:46.199Z,7.70
2023-03-12T17:50:18.201Z,7.64
2023-03-12T17:52:49.779Z,7.65
2023-03-12T17:55:21.287Z,7.64
2023-03-12T17:57:52.927Z,7.60
2023-03-12T18:00:24.910Z,7.48
2023-03-12T18:02:56.499Z,7.48
2023-03-12T18:05:28.075Z,7.48
2023-03-12T18:07:59.619Z,7.49
2023-03-12T18:10:32.850Z,7.43
2023-03-12T18:13:04.654Z,7.41
2023-03-12T18:15:36.154Z,7.41
2023-03-12T18:18:07.762Z,7.38
2023-03-12T18:20:40.020Z,7.40
2023-03-12T18:23:11.444Z,7.34
2023-03-12T18:25:43.191Z,7.33
2023-03-12T18:28:15.493Z,7.34
2023-03-12T18:30:47.144Z,7.30
2023-03-12T18:33:18.772Z,7.29
2023-03-12T18:35:51.596Z,7.24
2023-03-12T18:38:24.775Z,7.25
2023-03-12T18:41:07.355Z,7.24
2023-03-12T18:43:39.402Z,7.24
2023-03-12T18:46:12.978Z,7.25
2023-03-12T18:48:44.862Z,7.20
2023-03-12T18:51:16.534Z,7.20
2023-03-12T18:53:48.162Z,7.19
2023-03-12T18:56:19.794Z,7.14
2023-03-12T18:58:54.792Z,7.20
2023-03-12T19:01:26.471Z,7.15
2023-03-12T19:03:59.267Z,7.15
2023-03-12T19:06:37.807Z,7.14
2023-03-12T19:09:15.821Z,7.14
2023-03-12T19:11:48.168Z,7.08
2023-03-12T19:14:19.587Z,7.10
2023-03-12T19:16:51.111Z,7.07
2023-03-12T19:19:22.744Z,7.07
2023-03-12T19:21:57.091Z,7.06
2023-03-12T19:24:28.728Z,7.05
2023-03-12T19:27:00.251Z,7.03
2023-03-12T19:29:31.827Z,7.02
2023-03-12T19:32:03.285Z,7.02
2023-03-12T19:34:35.340Z,7.03
2023-03-12T19:37:07.058Z,7.01
2023-03-12T19:39:38.619Z,7.00
2023-03-12T19:42:11.496Z,6.99
2023-03-12T19:44:43.050Z,6.96
2023-03-12T19:47:18.275Z,6.94
2023-03-12T19:49:50.069Z,6.92
2023-03-12T19:52:21.883Z,6.94
2023-03-12T19:55:03.950Z,6.91
2023-03-12T19:57:36.509Z,6.93
2023-03-12T20:00:10.740Z,6.92
2023-03-12T20:02:43.281Z,6.91
2023-03-12T20:05:15.611Z,6.91
2023-03-12T20:07:48.784Z,6.92
2023-03-12T20:10:20.416Z,6.90
2023-03-12T20:12:51.890Z,6.91
2023-03-12T20:15:23.519Z,6.93
2023-03-12T20:17:56.787Z,6.93
2023-03-12T20:20:28.370Z,6.93
2023-03-12T20:23:00.132Z,6.95
2023-03-12T20:25:31.756Z,6.96
2023-03-12T20:28:03.643Z,6.92
2023-03-12T20:30:36.315Z,6.94
2023-03-12T20:33:08.502Z,6.93
2023-03-12T20:35:40.529Z,6.94
2023-03-12T20:38:13.641Z,6.92
2023-03-12T20:40:46.528Z,6.94
2023-03-12T20:43:18.683Z,6.95
2023-03-12T20:45:50.377Z,6.96
2023-03-12T20:48:22.685Z,6.95
2023-03-12T20:50:54.273Z,6.96
2023-03-12T20:53:26.092Z,6.99
2023-03-12T20:55:58.566Z,6.95
2023-03-12T20:58:30.149Z,6.98
2023-03-12T21:01:02.946Z,6.98
2023-03-12T21:03:34.700Z,6.99
2023-03-12T21:06:07.891Z,7.04
2023-03-12T21:08:40.860Z,7.00
2023-03-12T21:11:14.594Z,6.97
2023-03-12T21:13:46.198Z,6.97
2023-03-12T21:16:17.813Z,6.91
2023-03-12T21:18:54.870Z,6.90
2023-03-12T21:21:26.372Z,6.92
2023-03-12T21:23:59.974Z,6.92
2023-03-12T21:26:32.330Z,6.93
2023-03-12T21:29:04.856Z,6.91
2023-03-12T21:31:36.363Z,6.93
2023-03-12T21:34:09.662Z,6.91
2023-03-12T21:36:41.332Z,6.90
2023-03-12T21:39:13.128Z,6.87
2023-03-12T21:41:45.095Z,6.87
2023-03-12T21:44:16.844Z,6.88
2023-03-12T21:46:48.761Z,6.87
2023-03-12T21:49:21.192Z,6.86
2023-03-12T21:51:52.795Z,6.87
2023-03-12T21:54:24.433Z,6.88
2023-03-12T21:56:55.987Z,6.89
2023-03-12T21:59:27.894Z,6.86
2023-03-12T22:01:59.621Z,6.86
2023-03-12T22:04:32.085Z,6.83
2023-03-12T22:07:03.913Z,6.81
2023-03-12T22:09:35.461Z,6.80
2023-03-12T22:12:07.135Z,6.76
2023-03-12T22:14:38.727Z,6.80
2023-03-12T22:17:10.210Z,6.76
2023-03-12T22:19:42.140Z,6.76
2023-03-12T22:22:13.969Z,6.74
2023-03-12T22:24:45.518Z,6.79
2023-03-12T22:27:17.183Z,6.76
2023-03-12T22:29:50.702Z,6.77
2023-03-12T22:32:22.341Z,6.77
2023-03-12T22:34:53.824Z,6.76
2023-03-12T22:37:25.319Z,6.75
2023-03-12T22:40:01.439Z,6.79
2023-03-12T22:42:34.091Z,6.72
2023-03-12T22:45:06.151Z,6.72
2023-03-12T22:47:37.690Z,6.72
2023-03-12T22:50:10.870Z,6.71
2023-03-12T22:52:42.443Z,6.69
2023-03-12T22:55:14.280Z,6.69
2023-03-12T22:57:46.052Z,6.67
2023-03-12T23:00:22.770Z,6.66
2023-03-12T23:02:54.356Z,6.67
2023-03-12T23:05:25.883Z,6.67
2023-03-12T23:07:57.414Z,6.67
2023-03-12T23:10:28.897Z,6.63
2023-03-12T23:13:00.371Z,6.61
2023-03-12T23:15:40.458Z,6.63
2023-03-12T23:18:13.594Z,6.63
2023-03-12T23:20:45.976Z,6.62
2023-03-12T23:23:17.404Z,6.59
2023-03-12T23:25:53.197Z,6.59
2023-03-12T23:28:27.611Z,6.59
2023-03-12T23:31:02.348Z,6.58
2023-03-12T23:33:36.623Z,6.56
2023-03-12T23:36:14.484Z,6.58
2023-03-12T23:38:47.125Z,6.58
2023-03-12T23:41:23.349Z,6.58
2023-03-12T23:43:56.368Z,6.56
2023-03-12T23:46:28.723Z,6.54
2023-03-12T23:49:00.782Z,6.52
2023-03-12T23:51:35.260Z,6.50
2023-03-12T23:54:07.608Z,6.48
2023-03-12T23:56:40.027Z,6.47
2023-03-12T23:59:11.528Z,6.47
